createdAt,value
2019-01-27T00:03:05.745Z,24.40
2019-01-27T00:13:10.137Z,24.40
2019-01-27T00:23:14.875Z,24.30
2019-01-27T00:33:19.220Z,24.20
2019-01-27T00:43:23.643Z,24.10
2019-01-27T00:53:28.143Z,24.00
2019-01-27T01:03:32.756Z,23.90
2019-01-27T01:13:37.229Z,23.80
2019-01-27T01:23:41.763Z,23.70
2019-01-27T01:33:46.113Z,23.70
2019-01-27T01:43:50.894Z,23.60
2019-01-27T01:53:55.270Z,23.60
2019-01-27T02:04:00.040Z,23.60
2019-01-27T02:14:04.982Z,23.50
2019-01-27T02:24:09.386Z,23.50
2019-01-27T02:34:13.724Z,23.50
2019-01-27T02:44:18.418Z,23.50
2019-01-27T02:54:24.019Z,23.50
2019-01-27T03:04:28.412Z,23.40
2019-01-27T03:14:32.867Z,23.40
2019-01-27T03:24:37.639Z,23.40
2019-01-27T03:34:42.018Z,23.40
2019-01-27T03:44:46.493Z,23.40
2019-01-27T03:54:50.875Z,23.40
2019-01-27T04:04:55.398Z,23.30
2019-01-27T04:14:59.881Z,23.30
2019-01-27T04:25:04.998Z,23.30
2019-01-27T04:35:11.103Z,23.30
2019-01-27T04:45:17.920Z,23.30
2019-01-27T04:55:22.363Z,23.20
2019-01-27T05:05:27.332Z,23.20
2019-01-27T05:15:33.059Z,23.20
2019-01-27T05:25:37.497Z,23.20
2019-01-27T05:35:42.124Z,23.10
2019-01-27T05:45:46.648Z,23.20
2019-01-27T05:55:51.013Z,23.20
2019-01-27T06:05:55.394Z,23.20
2019-01-27T06:15:59.963Z,23.10
2019-01-27T06:26:04.709Z,23.20
2019-01-27T06:36:09.085Z,23.10
2019-01-27T06:46:13.745Z,23.10
2019-01-27T06:56:18.306Z,23.10
2019-01-27T07:06:27.110Z,23.20
2019-01-27T07:16:35.857Z,20.30
2019-01-27T07:27:09.798Z,20.80
2019-01-27T07:37:33.738Z,22.60
2019-01-27T07:47:42.842Z,23.40
2019-01-27T07:57:55.144Z,23.90
2019-01-27T08:08:01.023Z,24.40
2019-01-27T08:18:07.021Z,24.70
2019-01-27T08:28:13.249Z,24.90
2019-01-27T08:38:28.392Z,24.90
2019-01-27T08:48:32.741Z,25.00
2019-01-27T08:58:38.360Z,25.10
2019-01-27T09:09:02.991Z,25.20
2019-01-27T09:19:10.639Z,25.60
2019-01-27T09:29:16.852Z,25.60
2019-01-27T09:39:38.120Z,25.40
2019-01-27T09:49:56.854Z,25.20
2019-01-27T10:00:06.020Z,25.20
2019-01-27T10:10:12.672Z,25.20
2019-01-27T10:20:18.820Z,25.20
2019-01-27T10:30:26.023Z,25.10
2019-01-27T10:40:39.811Z,25.00
2019-01-27T10:50:55.795Z,24.90
2019-01-27T11:01:01.921Z,24.80
2019-01-27T11:11:07.940Z,24.70
2019-01-27T11:21:32.821Z,24.70
2019-01-27T11:31:40.011Z,24.60
2019-01-27T11:41:46.061Z,24.70
2019-01-27T11:51:50.747Z,25.00
2019-01-27T12:01:55.429Z,25.10
2019-01-27T12:11:59.792Z,25.40
2019-01-27T12:22:04.095Z,25.40
2019-01-27T12:32:08.827Z,25.50
2019-01-27T12:42:14.423Z,26.10
2019-01-27T12:52:18.855Z,25.90
2019-01-27T13:02:23.153Z,26.10
2019-01-27T13:12:27.607Z,27.30
2019-01-27T13:22:32.085Z,27.70
2019-01-27T13:32:36.799Z,26.70
2019-01-27T13:42:41.739Z,26.50
2019-01-27T13:52:46.130Z,26.20
2019-01-27T14:02:50.482Z,25.80
2019-01-27T14:12:55.142Z,25.50
2019-01-27T14:22:59.723Z,24.10
2019-01-27T14:33:04.284Z,24.10
2019-01-27T14:43:09.845Z,24.20
2019-01-27T14:53:14.316Z,24.20
2019-01-27T15:03:18.746Z,24.20
2019-01-27T15:13:23.283Z,24.10
2019-01-27T15:23:27.957Z,24.00
2019-01-27T15:33:32.633Z,24.10
2019-01-27T15:43:37.098Z,24.10
2019-01-27T15:53:42.571Z,24.10
2019-01-27T16:03:46.998Z,24.10
2019-01-27T16:13:51.536Z,24.10
2019-01-27T16:23:56.394Z,24.10
2019-01-27T16:34:02.491Z,24.10
2019-01-27T16:44:06.958Z,24.00
2019-01-27T16:54:11.196Z,24.00
2019-01-27T17:04:15.622Z,24.00
2019-01-27T17:14:20.288Z,24.00
2019-01-27T17:24:24.565Z,23.90
2019-01-27T17:35:55.695Z,23.80
2019-01-27T17:46:00.245Z,24.10
2019-01-27T17:56:04.817Z,24.20
2019-01-27T18:06:16.831Z,24.30
2019-01-27T18:16:21.521Z,24.40
2019-01-27T18:26:25.826Z,24.40
2019-01-27T18:36:30.440Z,24.40
2019-01-27T19:01:26.667Z,24.00
2019-01-27T19:11:41.642Z,24.30
2019-01-27T19:22:10.712Z,24.50
2019-01-27T19:32:16.914Z,24.60
2019-01-27T19:42:25.937Z,24.60
2019-01-27T19:52:34.537Z,24.60
2019-01-27T20:02:40.622Z,24.60
2019-01-27T20:13:08.551Z,24.60
2019-01-27T20:30:21.510Z,24.70
2019-01-27T20:40:27.569Z,24.50
2019-01-27T20:50:36.975Z,24.50
2019-01-27T21:00:51.858Z,24.50
2019-01-27T21:11:03.871Z,24.50
2019-01-27T21:21:08.150Z,24.50
2019-01-27T21:31:12.500Z,24.50
2019-01-27T21:41:16.904Z,24.50
2019-01-27T21:51:21.509Z,24.50
2019-01-27T22:01:26.044Z,24.50
2019-01-27T22:11:30.448Z,24.50
2019-01-27T22:21:34.785Z,24.60
2019-01-27T22:31:39.326Z,24.70
2019-01-27T22:41:43.641Z,24.70
2019-01-27T22:51:48.680Z,24.70
2019-01-27T23:01:53.596Z,24.80
2019-01-27T23:11:58.236Z,24.70
2019-01-27T23:22:02.744Z,24.70
2019-01-27T23:32:07.520Z,24.80
2019-01-27T23:42:11.846Z,24.80
2019-01-27T23:52:16.111Z,24.70
